Terminal Aerodrome Forecast
Issued by NWS

Home | Current Version | Previous Version | Text Only | Print | Product List | Glossary On
Versions: 1 2 3 4 5 6 7 8 9 10 11 12 13
785
FTUS42 TJSJ 282340
TAFJPS
TAF
TJPS 282340Z 2900/2924 00000KT P6SM FEW060
     FM291500 13008KT P6SM FEW030 FEW060
     FM291630 13010KT P6SM VCTS SCT025CB BKN050
     FM292330 05005KT P6SM SCT060
      AMD NOT SKED TIL 290300=

USA.gov is the U.S. government's official web portal to all federal, state and local government web resources and services.